sensor_id;sensor_type;location;lat;lon;timestamp;pressure;altitude;pressure_sealevel;temperature;humidity
35419;BME280;21525;41.240;16.500;2022-07-04T00:00:19;101249.53;;;35.23;37.14
35419;BME280;21525;41.240;16.500;2022-07-04T00:02:45;101243.06;;;34.92;37.47
35419;BME280;21525;41.240;16.500;2022-07-04T00:05:12;101245.66;;;35.26;36.73
35419;BME280;21525;41.240;16.500;2022-07-04T00:07:41;101252.03;;;34.92;37.22
35419;BME280;21525;41.240;16.500;2022-07-04T00:10:08;101232.69;;;35.38;36.45
35419;BME280;21525;41.240;16.500;2022-07-04T00:12:34;101236.97;;;34.82;37.30
35419;BME280;21525;41.240;16.500;2022-07-04T00:15:00;101230.31;;;35.34;36.10
35419;BME280;21525;41.240;16.500;2022-07-04T00:17:26;101237.75;;;35.32;36.06
35419;BME280;21525;41.240;16.500;2022-07-04T00:19:52;101227.59;;;35.43;35.86
35419;BME280;21525;41.240;16.500;2022-07-04T00:22:18;101228.13;;;35.30;36.25
35419;BME280;21525;41.240;16.500;2022-07-04T00:24:43;101225.03;;;35.17;35.92
35419;BME280;21525;41.240;16.500;2022-07-04T00:27:09;101233.38;;;35.31;35.88
35419;BME280;21525;41.240;16.500;2022-07-04T00:29:35;101233.50;;;35.22;35.88
35419;BME280;21525;41.240;16.500;2022-07-04T00:32:00;101238.16;;;34.87;36.58
35419;BME280;21525;41.240;16.500;2022-07-04T00:34:26;101229.91;;;34.97;36.25
35419;BME280;21525;41.240;16.500;2022-07-04T00:36:53;101228.94;;;35.06;36.28
35419;BME280;21525;41.240;16.500;2022-07-04T00:39:18;101232.28;;;35.16;36.12
35419;BME280;21525;41.240;16.500;2022-07-04T00:41:44;101231.59;;;34.98;36.13
35419;BME280;21525;41.240;16.500;2022-07-04T00:44:11;101236.69;;;35.01;36.23
35419;BME280;21525;41.240;16.500;2022-07-04T00:46:37;101236.63;;;34.85;36.13
35419;BME280;21525;41.240;16.500;2022-07-04T00:49:03;101236.78;;;34.33;36.38
35419;BME280;21525;41.240;16.500;2022-07-04T00:51:29;101244.38;;;34.80;36.20
35419;BME280;21525;41.240;16.500;2022-07-04T00:53:55;101234.63;;;34.87;35.57
35419;BME280;21525;41.240;16.500;2022-07-04T00:56:22;101234.84;;;34.59;36.54
35419;BME280;21525;41.240;16.500;2022-07-04T00:58:48;101230.91;;;34.88;35.65
35419;BME280;21525;41.240;16.500;2022-07-04T01:01:14;101236.91;;;34.65;35.88
35419;BME280;21525;41.240;16.500;2022-07-04T01:03:40;101233.28;;;34.91;36.05
35419;BME280;21525;41.240;16.500;2022-07-04T01:06:06;101226.19;;;34.90;36.14
35419;BME280;21525;41.240;16.500;2022-07-04T01:08:40;101223.50;;;35.14;35.84
35419;BME280;21525;41.240;16.500;2022-07-04T01:11:06;101221.66;;;34.98;35.46
35419;BME280;21525;41.240;16.500;2022-07-04T01:13:32;101222.78;;;34.38;36.82
35419;BME280;21525;41.240;16.500;2022-07-04T01:15:58;101224.25;;;34.66;36.47
35419;BME280;21525;41.240;16.500;2022-07-04T01:18:24;101211.72;;;34.57;36.15
35419;BME280;21525;41.240;16.500;2022-07-04T01:20:50;101217.56;;;34.86;36.37
35419;BME280;21525;41.240;16.500;2022-07-04T01:23:16;101218.69;;;34.76;36.38
35419;BME280;21525;41.240;16.500;2022-07-04T01:25:41;101216.22;;;34.40;36.34
35419;BME280;21525;41.240;16.500;2022-07-04T01:28:07;101222.13;;;34.86;36.00
35419;BME280;21525;41.240;16.500;2022-07-04T01:30:33;101217.84;;;34.75;35.83
35419;BME280;21525;41.240;16.500;2022-07-04T01:32:59;101224.88;;;35.02;35.53
35419;BME280;21525;41.240;16.500;2022-07-04T01:35:24;101220.56;;;34.75;36.07
35419;BME280;21525;41.240;16.500;2022-07-04T01:37:50;101218.09;;;34.98;35.33
35419;BME280;21525;41.240;16.500;2022-07-04T01:40:16;101219.56;;;34.84;35.86
35419;BME280;21525;41.240;16.500;2022-07-04T01:42:42;101217.75;;;34.93;35.90
35419;BME280;21525;41.240;16.500;2022-07-04T01:45:09;101218.69;;;34.67;35.71
35419;BME280;21525;41.240;16.500;2022-07-04T01:47:35;101219.28;;;34.95;35.56
35419;BME280;21525;41.240;16.500;2022-07-04T01:50:01;101214.31;;;34.75;35.93
35419;BME280;21525;41.240;16.500;2022-07-04T01:52:27;101208.34;;;34.63;35.83
35419;BME280;21525;41.240;16.500;2022-07-04T01:54:53;101216.75;;;35.02;35.41
35419;BME280;21525;41.240;16.500;2022-07-04T01:57:18;101206.41;;;34.89;35.49
35419;BME280;21525;41.240;16.500;2022-07-04T01:59:44;101209.97;;;34.90;35.30
35419;BME280;21525;41.240;16.500;2022-07-04T02:02:35;101221.53;;;34.66;35.44
35419;BME280;21525;41.240;16.500;2022-07-04T02:05:01;101208.63;;;35.18;35.08
35419;BME280;21525;41.240;16.500;2022-07-04T02:07:26;101208.16;;;35.07;34.71
35419;BME280;21525;41.240;16.500;2022-07-04T02:09:52;101207.25;;;34.82;34.62
35419;BME280;21525;41.240;16.500;2022-07-04T02:12:18;101209.00;;;35.07;34.67
35419;BME280;21525;41.240;16.500;2022-07-04T02:15:02;101203.25;;;35.02;34.98
35419;BME280;21525;41.240;16.500;2022-07-04T02:17:28;101209.84;;;35.08;34.66
35419;BME280;21525;41.240;16.500;2022-07-04T02:19:53;101219.03;;;34.73;35.04
35419;BME280;21525;41.240;16.500;2022-07-04T02:22:19;101206.41;;;34.89;34.70
35419;BME280;21525;41.240;16.500;2022-07-04T02:24:45;101209.63;;;34.93;34.52
35419;BME280;21525;41.240;16.500;2022-07-04T02:27:10;101218.06;;;34.40;35.52
35419;BME280;21525;41.240;16.500;2022-07-04T02:29:36;101213.03;;;34.95;34.31
35419;BME280;21525;41.240;16.500;2022-07-04T02:32:02;101212.81;;;34.80;34.53
35419;BME280;21525;41.240;16.500;2022-07-04T02:34:28;101210.84;;;34.48;34.87
35419;BME280;21525;41.240;16.500;2022-07-04T02:36:53;101208.34;;;34.63;34.63
35419;BME280;21525;41.240;16.500;2022-07-04T02:39:19;101212.94;;;34.28;35.42
35419;BME280;21525;41.240;16.500;2022-07-04T02:41:45;101208.44;;;34.37;34.92
35419;BME280;21525;41.240;16.500;2022-07-04T02:44:11;101206.69;;;34.70;34.69
35419;BME280;21525;41.240;16.500;2022-07-04T02:46:37;101202.53;;;34.92;34.35
35419;BME280;21525;41.240;16.500;2022-07-04T02:49:03;101213.69;;;34.39;34.80
35419;BME280;21525;41.240;16.500;2022-07-04T02:51:28;101204.63;;;34.56;34.42
35419;BME280;21525;41.240;16.500;2022-07-04T02:53:54;101213.69;;;34.39;34.93
35419;BME280;21525;41.240;16.500;2022-07-04T02:56:20;101214.22;;;34.50;34.73
35419;BME280;21525;41.240;16.500;2022-07-04T02:58:46;101226.44;;;34.62;34.54
35419;BME280;21525;41.240;16.500;2022-07-04T03:01:12;101209.47;;;34.36;34.72
35419;BME280;21525;41.240;16.500;2022-07-04T03:03:38;101215.50;;;34.30;34.74
35419;BME280;21525;41.240;16.500;2022-07-04T03:06:06;101221.03;;;34.28;34.42
35419;BME280;21525;41.240;16.500;2022-07-04T03:08:32;101220.31;;;34.52;34.50
35419;BME280;21525;41.240;16.500;2022-07-04T03:10:58;101223.63;;;34.38;34.71
35419;BME280;21525;41.240;16.500;2022-07-04T03:13:23;101220.91;;;34.30;34.44
35419;BME280;21525;41.240;16.500;2022-07-04T03:15:50;101222.84;;;34.20;34.72
35419;BME280;21525;41.240;16.500;2022-07-04T03:18:16;101219.94;;;34.13;34.29
35419;BME280;21525;41.240;16.500;2022-07-04T03:20:41;101229.94;;;34.21;34.58
35419;BME280;21525;41.240;16.500;2022-07-04T03:23:07;101221.09;;;34.45;34.09
35419;BME280;21525;41.240;16.500;2022-07-04T03:25:33;101225.75;;;34.26;34.39
35419;BME280;21525;41.240;16.500;2022-07-04T03:27:59;101226.53;;;34.11;34.78
35419;BME280;21525;41.240;16.500;2022-07-04T03:30:25;101223.16;;;34.17;34.53
35419;BME280;21525;41.240;16.500;2022-07-04T03:32:51;101229.09;;;34.54;33.76
35419;BME280;21525;41.240;16.500;2022-07-04T03:35:16;101240.19;;;34.17;34.36
35419;BME280;21525;41.240;16.500;2022-07-04T03:37:42;101231.66;;;34.64;33.37
35419;BME280;21525;41.240;16.500;2022-07-04T03:40:08;101235.56;;;34.78;33.48
35419;BME280;21525;41.240;16.500;2022-07-04T03:42:34;101234.50;;;35.13;33.03
35419;BME280;21525;41.240;16.500;2022-07-04T03:45:00;101233.97;;;35.01;32.91
35419;BME280;21525;41.240;16.500;2022-07-04T03:47:25;101223.84;;;34.95;33.09
35419;BME280;21525;41.240;16.500;2022-07-04T03:49:51;101225.88;;;35.25;32.99
35419;BME280;21525;41.240;16.500;2022-07-04T03:52:16;101222.09;;;36.08;31.98
35419;BME280;21525;41.240;16.500;2022-07-04T03:54:42;101220.00;;;36.73;30.75
35419;BME280;21525;41.240;16.500;2022-07-04T03:57:08;101234.50;;;36.88;30.28
35419;BME280;21525;41.240;16.500;2022-07-04T03:59:34;101232.16;;;37.08;29.88
35419;BME280;21525;41.240;16.500;2022-07-04T04:01:59;101237.41;;;37.10;30.50
35419;BME280;21525;41.240;16.500;2022-07-04T04:04:25;101230.50;;;37.30;29.98
35419;BME280;21525;41.240;16.500;2022-07-04T04:07:09;101231.44;;;37.60;29.98
35419;BME280;21525;41.240;16.500;2022-07-04T04:09:35;101232.47;;;37.59;29.78
35419;BME280;21525;41.240;16.500;2022-07-04T04:12:00;101233.59;;;37.64;29.64
35419;BME280;21525;41.240;16.500;2022-07-04T04:14:26;101228.41;;;38.37;28.37
35419;BME280;21525;41.240;16.500;2022-07-04T04:16:53;101233.63;;;38.68;28.24
35419;BME280;21525;41.240;16.500;2022-07-04T04:19:18;101234.41;;;38.61;28.08
35419;BME280;21525;41.240;16.500;2022-07-04T04:21:44;101238.91;;;38.54;28.13
35419;BME280;21525;41.240;16.500;2022-07-04T04:24:10;101236.84;;;38.92;27.46
35419;BME280;21525;41.240;16.500;2022-07-04T04:26:36;101228.53;;;38.14;29.03
35419;BME280;21525;41.240;16.500;2022-07-04T04:29:01;101237.75;;;38.05;28.67
35419;BME280;21525;41.240;16.500;2022-07-04T04:31:27;101230.38;;;39.36;27.39
35419;BME280;21525;41.240;16.500;2022-07-04T04:33:53;101233.25;;;39.77;26.88
35419;BME280;21525;41.240;16.500;2022-07-04T04:36:19;101225.88;;;40.94;26.06
35419;BME280;21525;41.240;16.500;2022-07-04T04:38:45;101219.44;;;41.15;25.79
35419;BME280;21525;41.240;16.500;2022-07-04T04:41:11;101227.16;;;40.99;26.01
35419;BME280;21525;41.240;16.500;2022-07-04T04:43:36;101232.06;;;40.55;26.45
35419;BME280;21525;41.240;16.500;2022-07-04T04:46:02;101226.59;;;41.76;25.73
35419;BME280;21525;41.240;16.500;2022-07-04T04:48:28;101228.22;;;41.97;25.11
35419;BME280;21525;41.240;16.500;2022-07-04T04:50:53;101225.09;;;42.57;24.96
35419;BME280;21525;41.240;16.500;2022-07-04T04:53:19;101225.38;;;42.49;24.69
35419;BME280;21525;41.240;16.500;2022-07-04T04:55:47;101224.66;;;42.61;24.69
35419;BME280;21525;41.240;16.500;2022-07-04T04:58:13;101229.97;;;42.55;25.05
35419;BME280;21525;41.240;16.500;2022-07-04T05:00:39;101227.00;;;41.33;25.73
35419;BME280;21525;41.240;16.500;2022-07-04T05:03:04;101237.50;;;41.30;26.14
35419;BME280;21525;41.240;16.500;2022-07-04T05:05:30;101232.88;;;41.30;26.32
35419;BME280;21525;41.240;16.500;2022-07-04T05:07:56;101227.44;;;41.23;26.49
35419;BME280;21525;41.240;16.500;2022-07-04T05:10:21;101232.91;;;41.43;26.19
35419;BME280;21525;41.240;16.500;2022-07-04T05:12:47;101230.59;;;41.80;25.83
35419;BME280;21525;41.240;16.500;2022-07-04T05:15:13;101225.03;;;42.71;24.59
35419;BME280;21525;41.240;16.500;2022-07-04T05:17:39;101227.25;;;44.18;23.56
35419;BME280;21525;41.240;16.500;2022-07-04T05:20:05;101223.09;;;45.17;22.60
35419;BME280;21525;41.240;16.500;2022-07-04T05:22:30;101222.09;;;45.53;21.83
35419;BME280;21525;41.240;16.500;2022-07-04T05:24:56;101218.19;;;44.66;22.26
35419;BME280;21525;41.240;16.500;2022-07-04T05:27:22;101223.88;;;44.16;23.26
35419;BME280;21525;41.240;16.500;2022-07-04T05:29:47;101228.88;;;43.82;23.62
35419;BME280;21525;41.240;16.500;2022-07-04T05:32:13;101223.66;;;42.93;24.14
35419;BME280;21525;41.240;16.500;2022-07-04T05:34:39;101221.91;;;44.05;23.70
35419;BME280;21525;41.240;16.500;2022-07-04T05:37:04;101218.66;;;43.71;23.99
35419;BME280;21525;41.240;16.500;2022-07-04T05:39:30;101215.38;;;43.99;23.74
35419;BME280;21525;41.240;16.500;2022-07-04T05:41:56;101220.22;;;44.04;23.32
35419;BME280;21525;41.240;16.500;2022-07-04T05:44:22;101229.78;;;43.76;24.14
35419;BME280;21525;41.240;16.500;2022-07-04T05:46:48;101216.28;;;43.75;24.23
35419;BME280;21525;41.240;16.500;2022-07-04T05:49:14;101220.00;;;44.05;23.44
35419;BME280;21525;41.240;16.500;2022-07-04T05:51:39;101206.22;;;44.12;23.31
35419;BME280;21525;41.240;16.500;2022-07-04T05:54:05;101215.31;;;43.87;23.38
35419;BME280;21525;41.240;16.500;2022-07-04T05:56:31;101207.03;;;43.51;23.74
35419;BME280;21525;41.240;16.500;2022-07-04T05:58:56;101208.47;;;43.78;23.88
35419;BME280;21525;41.240;16.500;2022-07-04T06:01:22;101212.09;;;43.90;23.69
35419;BME280;21525;41.240;16.500;2022-07-04T06:03:48;101208.78;;;44.25;23.15
35419;BME280;21525;41.240;16.500;2022-07-04T06:06:14;101213.66;;;44.23;23.12
35419;BME280;21525;41.240;16.500;2022-07-04T06:08:41;101207.72;;;44.26;22.69
35419;BME280;21525;41.240;16.500;2022-07-04T06:11:07;101210.09;;;44.04;22.92
35419;BME280;21525;41.240;16.500;2022-07-04T06:13:32;101212.72;;;43.49;22.94
35419;BME280;21525;41.240;16.500;2022-07-04T06:15:58;101207.75;;;44.08;22.49
35419;BME280;21525;41.240;16.500;2022-07-04T06:18:24;101218.31;;;44.04;23.12
35419;BME280;21525;41.240;16.500;2022-07-04T06:20:50;101213.28;;;44.19;22.95
35419;BME280;21525;41.240;16.500;2022-07-04T06:23:15;101221.25;;;44.21;22.32
35419;BME280;21525;41.240;16.500;2022-07-04T06:25:41;101218.47;;;43.66;23.10
35419;BME280;21525;41.240;16.500;2022-07-04T06:28:07;101224.81;;;43.42;23.05
35419;BME280;21525;41.240;16.500;2022-07-04T06:30:33;101223.13;;;44.09;23.09
35419;BME280;21525;41.240;16.500;2022-07-04T06:32:58;101223.13;;;44.45;22.15
35419;BME280;21525;41.240;16.500;2022-07-04T06:35:31;101226.75;;;44.87;22.27
35419;BME280;21525;41.240;16.500;2022-07-04T06:38:16;101230.03;;;44.78;21.95
35419;BME280;21525;41.240;16.500;2022-07-04T06:40:43;101222.16;;;44.51;22.45
35419;BME280;21525;41.240;16.500;2022-07-04T06:43:09;101223.72;;;45.07;21.89
35419;BME280;21525;41.240;16.500;2022-07-04T06:45:35;101219.72;;;44.92;22.32
35419;BME280;21525;41.240;16.500;2022-07-04T06:48:01;101221.66;;;44.73;22.06
35419;BME280;21525;41.240;16.500;2022-07-04T06:50:27;101219.19;;;44.53;21.99
35419;BME280;21525;41.240;16.500;2022-07-04T06:52:53;101221.63;;;44.91;22.38
35419;BME280;21525;41.240;16.500;2022-07-04T06:55:19;101212.59;;;44.42;23.15
35419;BME280;21525;41.240;16.500;2022-07-04T06:57:44;101219.38;;;44.70;23.39
35419;BME280;21525;41.240;16.500;2022-07-04T07:00:10;101217.47;;;44.70;23.89
35419;BME280;21525;41.240;16.500;2022-07-04T07:02:36;101207.94;;;44.25;24.83
35419;BME280;21525;41.240;16.500;2022-07-04T07:05:03;101213.59;;;43.18;25.34
35419;BME280;21525;41.240;16.500;2022-07-04T07:07:29;101208.16;;;42.87;26.41
35419;BME280;21525;41.240;16.500;2022-07-04T07:09:54;101201.72;;;42.17;26.62
35419;BME280;21525;41.240;16.500;2022-07-04T07:12:20;101212.81;;;43.11;25.72
35419;BME280;21525;41.240;16.500;2022-07-04T07:14:46;101204.91;;;43.28;25.76
35419;BME280;21525;41.240;16.500;2022-07-04T07:17:12;101206.25;;;43.69;25.77
35419;BME280;21525;41.240;16.500;2022-07-04T07:19:38;101205.41;;;43.68;25.65
35419;BME280;21525;41.240;16.500;2022-07-04T07:22:04;101200.03;;;43.80;25.61
35419;BME280;21525;41.240;16.500;2022-07-04T07:24:29;101200.47;;;44.32;24.69
35419;BME280;21525;41.240;16.500;2022-07-04T07:26:56;101203.28;;;43.88;25.84
35419;BME280;21525;41.240;16.500;2022-07-04T07:29:22;101206.34;;;44.35;25.12
35419;BME280;21525;41.240;16.500;2022-07-04T07:31:48;101205.38;;;44.11;25.73
35419;BME280;21525;41.240;16.500;2022-07-04T07:34:14;101202.41;;;44.13;26.41
35419;BME280;21525;41.240;16.500;2022-07-04T07:36:40;101212.41;;;44.01;27.57
35419;BME280;21525;41.240;16.500;2022-07-04T07:39:05;101210.22;;;43.73;27.71
35419;BME280;21525;41.240;16.500;2022-07-04T07:41:31;101206.03;;;43.45;27.89
35419;BME280;21525;41.240;16.500;2022-07-04T07:43:57;101207.06;;;43.69;28.34
35419;BME280;21525;41.240;16.500;2022-07-04T07:46:23;101208.75;;;43.70;27.81
35419;BME280;21525;41.240;16.500;2022-07-04T07:48:49;101211.13;;;43.42;27.95
35419;BME280;21525;41.240;16.500;2022-07-04T07:51:14;101200.81;;;43.62;28.09
35419;BME280;21525;41.240;16.500;2022-07-04T07:53:42;101203.88;;;43.72;28.19
35419;BME280;21525;41.240;16.500;2022-07-04T07:56:07;101202.56;;;43.00;28.58
35419;BME280;21525;41.240;16.500;2022-07-04T07:58:33;101206.66;;;42.53;29.01
35419;BME280;21525;41.240;16.500;2022-07-04T08:00:59;101208.53;;;41.68;30.70
35419;BME280;21525;41.240;16.500;2022-07-04T08:03:25;101206.03;;;41.47;30.49
35419;BME280;21525;41.240;16.500;2022-07-04T08:06:10;101206.88;;;42.45;29.51
35419;BME280;21525;41.240;16.500;2022-07-04T08:08:37;101195.81;;;43.03;28.85
35419;BME280;21525;41.240;16.500;2022-07-04T08:11:03;101202.91;;;42.85;28.00
35419;BME280;21525;41.240;16.500;2022-07-04T08:13:29;101207.44;;;40.36;32.66
35419;BME280;21525;41.240;16.500;2022-07-04T08:15:55;101213.50;;;39.19;35.53
35419;BME280;21525;41.240;16.500;2022-07-04T08:18:20;101213.97;;;41.15;32.91
35419;BME280;21525;41.240;16.500;2022-07-04T08:20:48;101203.88;;;42.02;31.02
35419;BME280;21525;41.240;16.500;2022-07-04T08:23:14;101192.59;;;42.81;29.76
35419;BME280;21525;41.240;16.500;2022-07-04T08:25:40;101192.28;;;42.96;29.00
35419;BME280;21525;41.240;16.500;2022-07-04T08:28:05;101206.50;;;43.11;29.22
35419;BME280;21525;41.240;16.500;2022-07-04T08:30:31;101208.91;;;40.86;31.30
35419;BME280;21525;41.240;16.500;2022-07-04T08:32:57;101209.97;;;41.05;31.90
35419;BME280;21525;41.240;16.500;2022-07-04T08:35:23;101201.41;;;42.38;29.87
35419;BME280;21525;41.240;16.500;2022-07-04T08:37:48;101202.38;;;42.06;29.17
35419;BME280;21525;41.240;16.500;2022-07-04T08:40:21;101200.09;;;42.92;28.15
35419;BME280;21525;41.240;16.500;2022-07-04T08:42:48;101208.34;;;43.17;28.04
35419;BME280;21525;41.240;16.500;2022-07-04T08:45:15;101210.97;;;43.05;26.63
35419;BME280;21525;41.240;16.500;2022-07-04T08:47:40;101196.56;;;43.16;26.63
35419;BME280;21525;41.240;16.500;2022-07-04T08:50:09;101203.88;;;42.91;26.54
35419;BME280;21525;41.240;16.500;2022-07-04T08:52:41;101202.56;;;43.32;26.07
35419;BME280;21525;41.240;16.500;2022-07-04T08:55:08;101205.75;;;43.53;25.14
35419;BME280;21525;41.240;16.500;2022-07-04T08:57:53;101203.50;;;43.69;25.96
35419;BME280;21525;41.240;16.500;2022-07-04T09:00:38;101205.38;;;41.65;28.63
35419;BME280;21525;41.240;16.500;2022-07-04T09:03:04;101211.22;;;42.08;28.03
35419;BME280;21525;41.240;16.500;2022-07-04T09:05:30;101210.66;;;42.88;27.56
35419;BME280;21525;41.240;16.500;2022-07-04T09:07:57;101206.41;;;43.24;26.84
35419;BME280;21525;41.240;16.500;2022-07-04T09:10:23;101210.53;;;42.70;26.60
35419;BME280;21525;41.240;16.500;2022-07-04T09:12:50;101209.81;;;42.50;26.94
35419;BME280;21525;41.240;16.500;2022-07-04T09:15:16;101206.91;;;42.76;26.20
35419;BME280;21525;41.240;16.500;2022-07-04T09:17:41;101209.84;;;43.13;25.47
35419;BME280;21525;41.240;16.500;2022-07-04T09:22:39;101199.56;;;42.77;25.03
35419;BME280;21525;41.240;16.500;2022-07-04T09:25:05;101199.06;;;43.18;24.36
35419;BME280;21525;41.240;16.500;2022-07-04T09:27:37;101208.97;;;41.25;28.97
35419;BME280;21525;41.240;16.500;2022-07-04T09:30:03;101199.19;;;42.67;26.98
35419;BME280;21525;41.240;16.500;2022-07-04T09:32:33;101205.59;;;41.70;28.08
35419;BME280;21525;41.240;16.500;2022-07-04T09:35:00;101205.97;;;41.01;27.66
35419;BME280;21525;41.240;16.500;2022-07-04T09:37:40;101211.91;;;41.44;26.91
35419;BME280;21525;41.240;16.500;2022-07-04T09:40:08;101211.44;;;41.07;27.57
35419;BME280;21525;41.240;16.500;2022-07-04T09:42:35;101209.16;;;41.57;27.04
35419;BME280;21525;41.240;16.500;2022-07-04T09:45:05;101203.75;;;42.79;24.87
35419;BME280;21525;41.240;16.500;2022-07-04T09:47:31;101205.00;;;42.39;25.39
35419;BME280;21525;41.240;16.500;2022-07-04T09:50:16;101211.63;;;40.86;26.13
35419;BME280;21525;41.240;16.500;2022-07-04T09:52:49;101201.81;;;40.44;25.40
35419;BME280;21525;41.240;16.500;2022-07-04T09:57:54;101199.25;;;40.97;24.37
35419;BME280;21525;41.240;16.500;2022-07-04T10:02:45;101194.03;;;39.93;26.31
35419;BME280;21525;41.240;16.500;2022-07-04T10:05:11;101193.31;;;39.35;27.06
35419;BME280;21525;41.240;16.500;2022-07-04T10:07:38;101192.25;;;39.51;27.08
35419;BME280;21525;41.240;16.500;2022-07-04T10:10:26;101194.41;;;39.62;26.67
35419;BME280;21525;41.240;16.500;2022-07-04T10:12:52;101192.97;;;39.94;25.93
35419;BME280;21525;41.240;16.500;2022-07-04T10:15:19;101192.75;;;39.40;26.09
35419;BME280;21525;41.240;16.500;2022-07-04T10:17:44;101191.84;;;39.54;25.88
35419;BME280;21525;41.240;16.500;2022-07-04T10:20:11;101196.88;;;39.36;26.48
35419;BME280;21525;41.240;16.500;2022-07-04T10:22:37;101188.91;;;39.83;27.04
35419;BME280;21525;41.240;16.500;2022-07-04T10:25:03;101190.59;;;40.19;26.93
35419;BME280;21525;41.240;16.500;2022-07-04T10:27:30;101190.56;;;39.84;28.28
35419;BME280;21525;41.240;16.500;2022-07-04T10:29:56;101187.94;;;39.97;28.26
35419;BME280;21525;41.240;16.500;2022-07-04T10:32:22;101193.00;;;39.45;29.34
35419;BME280;21525;41.240;16.500;2022-07-04T10:34:48;101188.69;;;39.29;28.19
35419;BME280;21525;41.240;16.500;2022-07-04T10:37:13;101193.03;;;38.30;28.68
35419;BME280;21525;41.240;16.500;2022-07-04T10:39:39;101195.88;;;40.81;29.26
35419;BME280;21525;41.240;16.500;2022-07-04T10:42:06;101192.13;;;41.02;26.22
35419;BME280;21525;41.240;16.500;2022-07-04T10:44:33;101201.22;;;41.22;27.10
35419;BME280;21525;41.240;16.500;2022-07-04T10:47:06;101187.38;;;40.50;29.02
35419;BME280;21525;41.240;16.500;2022-07-04T10:49:46;101187.25;;;40.23;27.66
35419;BME280;21525;41.240;16.500;2022-07-04T10:52:13;101199.66;;;37.83;30.44
35419;BME280;21525;41.240;16.500;2022-07-04T10:54:40;101189.53;;;38.87;34.66
35419;BME280;21525;41.240;16.500;2022-07-04T10:59:38;101201.22;;;37.03;48.98
35419;BME280;21525;41.240;16.500;2022-07-04T11:07:17;101176.97;;;38.35;31.78
35419;BME280;21525;41.240;16.500;2022-07-04T11:09:44;101177.94;;;38.27;32.39
35419;BME280;21525;41.240;16.500;2022-07-04T11:12:09;101170.56;;;38.93;32.18
35419;BME280;21525;41.240;16.500;2022-07-04T11:17:02;101168.31;;;37.95;30.23
35419;BME280;21525;41.240;16.500;2022-07-04T11:19:28;101170.22;;;37.57;33.00
35419;BME280;21525;41.240;16.500;2022-07-04T11:21:54;101179.59;;;36.63;37.28
35419;BME280;21525;41.240;16.500;2022-07-04T11:24:20;101169.50;;;37.26;35.05
35419;BME280;21525;41.240;16.500;2022-07-04T11:26:46;101163.41;;;37.76;32.21
35419;BME280;21525;41.240;16.500;2022-07-04T11:29:12;101168.50;;;36.42;31.92
35419;BME280;21525;41.240;16.500;2022-07-04T11:31:39;101169.94;;;36.30;34.86
35419;BME280;21525;41.240;16.500;2022-07-04T11:34:06;101161.78;;;36.38;35.29
35419;BME280;21525;41.240;16.500;2022-07-04T11:36:32;101152.00;;;36.29;33.55
35419;BME280;21525;41.240;16.500;2022-07-04T11:38:58;101157.03;;;37.54;33.43
35419;BME280;21525;41.240;16.500;2022-07-04T11:41:28;101157.34;;;36.99;33.02
35419;BME280;21525;41.240;16.500;2022-07-04T11:44:18;101154.91;;;36.50;33.32
35419;BME280;21525;41.240;16.500;2022-07-04T11:49:28;101152.56;;;37.01;38.55
35419;BME280;21525;41.240;16.500;2022-07-04T11:51:54;101161.38;;;37.41;37.38
35419;BME280;21525;41.240;16.500;2022-07-04T11:54:21;101154.38;;;35.68;40.85
35419;BME280;21525;41.240;16.500;2022-07-04T11:56:47;101156.19;;;35.92;40.73
35419;BME280;21525;41.240;16.500;2022-07-04T11:59:13;101146.84;;;36.73;43.88
35419;BME280;21525;41.240;16.500;2022-07-04T12:01:43;101144.34;;;36.63;45.26
35419;BME280;21525;41.240;16.500;2022-07-04T12:04:15;101147.44;;;36.83;44.00
35419;BME280;21525;41.240;16.500;2022-07-04T12:06:42;101137.88;;;38.00;41.11
35419;BME280;21525;41.240;16.500;2022-07-04T12:09:08;101145.06;;;38.22;40.47
35419;BME280;21525;41.240;16.500;2022-07-04T12:14:18;101148.31;;;35.42;48.57
35419;BME280;21525;41.240;16.500;2022-07-04T12:16:44;101154.56;;;36.53;49.01
35419;BME280;21525;41.240;16.500;2022-07-04T12:19:10;101146.22;;;35.77;49.06
35419;BME280;21525;41.240;16.500;2022-07-04T12:21:35;101150.50;;;36.18;47.12
35419;BME280;21525;41.240;16.500;2022-07-04T12:24:01;101162.00;;;35.24;47.90
35419;BME280;21525;41.240;16.500;2022-07-04T12:26:30;101154.25;;;35.05;48.19
35419;BME280;21525;41.240;16.500;2022-07-04T12:28:56;101149.84;;;35.04;53.14
35419;BME280;21525;41.240;16.500;2022-07-04T12:34:16;101158.44;;;36.20;54.49
35419;BME280;21525;41.240;16.500;2022-07-04T12:36:51;101153.34;;;36.25;55.08
35419;BME280;21525;41.240;16.500;2022-07-04T12:39:34;101150.16;;;35.58;58.91
35419;BME280;21525;41.240;16.500;2022-07-04T12:42:04;101158.94;;;35.60;60.48
35419;BME280;21525;41.240;16.500;2022-07-04T12:44:30;101149.81;;;35.69;61.15
35419;BME280;21525;41.240;16.500;2022-07-04T12:46:56;101141.84;;;36.85;59.38
35419;BME280;21525;41.240;16.500;2022-07-04T12:49:22;101140.56;;;37.56;55.56
35419;BME280;21525;41.240;16.500;2022-07-04T12:51:48;101151.97;;;36.91;57.28
35419;BME280;21525;41.240;16.500;2022-07-04T12:54:13;101152.69;;;36.85;59.28
35419;BME280;21525;41.240;16.500;2022-07-04T12:56:40;101153.13;;;36.96;58.83
35419;BME280;21525;41.240;16.500;2022-07-04T12:59:08;101151.19;;;35.24;66.64
35419;BME280;21525;41.240;16.500;2022-07-04T13:01:35;101144.59;;;36.15;63.95
35419;BME280;21525;41.240;16.500;2022-07-04T13:04:01;101146.66;;;35.41;66.25